sensor_id;sensor_type;location;lat;lon;timestamp;pressure;altitude;pressure_sealevel;temperature;humidity
74578;BME280;63173;49.086;33.418;2023-02-23T00:00:27;101011.97;;;-4.37;74.11
74578;BME280;63173;49.086;33.418;2023-02-23T00:02:54;101013.34;;;-4.49;74.09
74578;BME280;63173;49.086;33.418;2023-02-23T00:05:24;101016.16;;;-4.43;74.22
74578;BME280;63173;49.086;33.418;2023-02-23T00:07:49;101024.91;;;-4.42;73.85
74578;BME280;63173;49.086;33.418;2023-02-23T00:10:16;101028.78;;;-4.53;74.03
74578;BME280;63173;49.086;33.418;2023-02-23T00:12:43;101028.97;;;-4.54;73.15
74578;BME280;63173;49.086;33.418;2023-02-23T00:15:09;101021.69;;;-4.68;73.89
74578;BME280;63173;49.086;33.418;2023-02-23T00:17:35;101032.38;;;-4.46;73.65
74578;BME280;63173;49.086;33.418;2023-02-23T00:20:06;101033.91;;;-4.51;73.41
74578;BME280;63173;49.086;33.418;2023-02-23T00:22:36;101038.06;;;-4.57;74.52
74578;BME280;63173;49.086;33.418;2023-02-23T00:25:02;101040.22;;;-4.52;74.87
74578;BME280;63173;49.086;33.418;2023-02-23T00:27:34;101043.38;;;-4.65;74.13
74578;BME280;63173;49.086;33.418;2023-02-23T00:30:00;101044.53;;;-4.59;73.55
74578;BME280;63173;49.086;33.418;2023-02-23T00:32:25;101050.56;;;-4.73;74.60
74578;BME280;63173;49.086;33.418;2023-02-23T00:34:51;101055.19;;;-4.75;73.86
74578;BME280;63173;49.086;33.418;2023-02-23T00:37:17;101059.66;;;-4.84;74.08
74578;BME280;63173;49.086;33.418;2023-02-23T00:39:43;101060.50;;;-4.75;75.03
74578;BME280;63173;49.086;33.418;2023-02-23T00:42:08;101061.16;;;-4.73;74.05
74578;BME280;63173;49.086;33.418;2023-02-23T00:44:35;101063.75;;;-4.65;74.05
74578;BME280;63173;49.086;33.418;2023-02-23T00:47:05;101061.81;;;-4.80;74.46
74578;BME280;63173;49.086;33.418;2023-02-23T00:49:31;101068.09;;;-4.81;74.57
74578;BME280;63173;49.086;33.418;2023-02-23T00:51:56;101065.44;;;-4.81;74.72
74578;BME280;63173;49.086;33.418;2023-02-23T00:54:22;101074.41;;;-4.82;74.16
74578;BME280;63173;49.086;33.418;2023-02-23T00:56:48;101074.09;;;-4.87;74.36
74578;BME280;63173;49.086;33.418;2023-02-23T00:59:13;101075.56;;;-4.84;74.26
74578;BME280;63173;49.086;33.418;2023-02-23T01:01:40;101073.63;;;-5.06;74.72
74578;BME280;63173;49.086;33.418;2023-02-23T01:04:10;101091.19;;;-5.21;75.21
74578;BME280;63173;49.086;33.418;2023-02-23T01:06:35;101088.53;;;-5.29;75.67
74578;BME280;63173;49.086;33.418;2023-02-23T01:09:07;101091.66;;;-5.18;74.73
74578;BME280;63173;49.086;33.418;2023-02-23T01:11:33;101090.69;;;-5.25;74.33
74578;BME280;63173;49.086;33.418;2023-02-23T01:13:59;101097.44;;;-5.22;73.46
74578;BME280;63173;49.086;33.418;2023-02-23T01:16:31;101105.91;;;-5.27;73.22
74578;BME280;63173;49.086;33.418;2023-02-23T01:18:59;101104.41;;;-5.21;73.90
74578;BME280;63173;49.086;33.418;2023-02-23T01:21:45;101110.69;;;-5.22;73.72
74578;BME280;63173;49.086;33.418;2023-02-23T01:24:11;101115.16;;;-4.99;73.13
74578;BME280;63173;49.086;33.418;2023-02-23T01:26:40;101115.84;;;-5.21;73.44
74578;BME280;63173;49.086;33.418;2023-02-23T01:31:34;101121.13;;;-5.29;73.38
74578;BME280;63173;49.086;33.418;2023-02-23T01:34:01;101123.09;;;-5.47;73.49
74578;BME280;63173;49.086;33.418;2023-02-23T01:36:27;101123.41;;;-5.50;71.83
74578;BME280;63173;49.086;33.418;2023-02-23T01:38:54;101126.88;;;-5.57;71.69
74578;BME280;63173;49.086;33.418;2023-02-23T01:41:22;101123.56;;;-5.59;72.43
74578;BME280;63173;49.086;33.418;2023-02-23T01:46:21;101125.22;;;-5.50;70.43
74578;BME280;63173;49.086;33.418;2023-02-23T01:48:46;101132.34;;;-5.59;70.86
74578;BME280;63173;49.086;33.418;2023-02-23T01:51:16;101134.97;;;-5.67;70.99
74578;BME280;63173;49.086;33.418;2023-02-23T01:53:47;101135.97;;;-5.68;70.78
74578;BME280;63173;49.086;33.418;2023-02-23T01:56:21;101136.78;;;-5.76;70.07
74578;BME280;63173;49.086;33.418;2023-02-23T01:58:50;101144.88;;;-5.85;70.31
74578;BME280;63173;49.086;33.418;2023-02-23T02:01:17;101141.56;;;-5.79;69.27
74578;BME280;63173;49.086;33.418;2023-02-23T02:04:02;101148.81;;;-5.89;68.08
74578;BME280;63173;49.086;33.418;2023-02-23T02:06:32;101153.09;;;-5.96;68.61
74578;BME280;63173;49.086;33.418;2023-02-23T02:09:02;101157.06;;;-5.92;68.34
74578;BME280;63173;49.086;33.418;2023-02-23T02:11:31;101157.41;;;-5.95;68.32
74578;BME280;63173;49.086;33.418;2023-02-23T02:14:15;101157.06;;;-6.00;68.06
74578;BME280;63173;49.086;33.418;2023-02-23T02:22:18;101169.28;;;-5.99;69.00
74578;BME280;63173;49.086;33.418;2023-02-23T02:34:21;101180.69;;;-5.99;68.83
74578;BME280;63173;49.086;33.418;2023-02-23T02:39:52;101184.28;;;-6.08;69.77
74578;BME280;63173;49.086;33.418;2023-02-23T02:43:17;101187.13;;;-6.01;69.44
74578;BME280;63173;49.086;33.418;2023-02-23T02:51:21;101197.06;;;-5.95;70.23
74578;BME280;63173;49.086;33.418;2023-02-23T02:54:13;101200.84;;;-6.06;70.45
74578;BME280;63173;49.086;33.418;2023-02-23T02:56:45;101199.66;;;-6.11;70.60
74578;BME280;63173;49.086;33.418;2023-02-23T02:59:14;101203.81;;;-6.01;69.62
74578;BME280;63173;49.086;33.418;2023-02-23T03:01:59;101201.69;;;-5.97;70.61
74578;BME280;63173;49.086;33.418;2023-02-23T03:04:43;101207.41;;;-6.10;70.75
74578;BME280;63173;49.086;33.418;2023-02-23T03:07:36;101204.94;;;-6.11;70.37
74578;BME280;63173;49.086;33.418;2023-02-23T03:13:49;101219.81;;;-6.10;70.30
74578;BME280;63173;49.086;33.418;2023-02-23T03:16:50;101215.13;;;-6.16;70.94
74578;BME280;63173;49.086;33.418;2023-02-23T03:19:53;101228.47;;;-6.00;70.92
74578;BME280;63173;49.086;33.418;2023-02-23T03:23:23;101232.25;;;-6.03;70.61
74578;BME280;63173;49.086;33.418;2023-02-23T03:26:17;101223.91;;;-6.16;70.38
74578;BME280;63173;49.086;33.418;2023-02-23T03:34:56;101228.69;;;-6.19;70.95
74578;BME280;63173;49.086;33.418;2023-02-23T03:37:51;101236.28;;;-6.16;71.70
74578;BME280;63173;49.086;33.418;2023-02-23T03:40:39;101234.25;;;-6.22;72.44
74578;BME280;63173;49.086;33.418;2023-02-23T03:43:29;101243.81;;;-6.29;71.57
74578;BME280;63173;49.086;33.418;2023-02-23T03:46:17;101241.97;;;-6.11;72.74
74578;BME280;63173;49.086;33.418;2023-02-23T03:49:05;101246.41;;;-6.12;71.67
74578;BME280;63173;49.086;33.418;2023-02-23T03:51:52;101249.13;;;-6.04;72.26
74578;BME280;63173;49.086;33.418;2023-02-23T03:54:44;101245.50;;;-6.20;72.37
74578;BME280;63173;49.086;33.418;2023-02-23T03:57:33;101250.69;;;-6.11;71.94
74578;BME280;63173;49.086;33.418;2023-02-23T04:00:25;101257.78;;;-6.19;72.09
74578;BME280;63173;49.086;33.418;2023-02-23T04:03:11;101261.53;;;-6.22;73.84
74578;BME280;63173;49.086;33.418;2023-02-23T04:05:59;101253.34;;;-6.11;72.91
74578;BME280;63173;49.086;33.418;2023-02-23T04:08:43;101259.06;;;-6.23;73.46
74578;BME280;63173;49.086;33.418;2023-02-23T04:11:55;101252.00;;;-6.15;72.98
74578;BME280;63173;49.086;33.418;2023-02-23T04:15:13;101254.44;;;-6.21;72.97
74578;BME280;63173;49.086;33.418;2023-02-23T04:17:40;101259.56;;;-6.20;72.56
74578;BME280;63173;49.086;33.418;2023-02-23T04:20:06;101264.03;;;-6.20;73.61
74578;BME280;63173;49.086;33.418;2023-02-23T04:22:32;101265.38;;;-6.16;73.02
74578;BME280;63173;49.086;33.418;2023-02-23T04:24:59;101268.28;;;-6.27;72.64
74578;BME280;63173;49.086;33.418;2023-02-23T04:27:25;101281.06;;;-6.23;73.26
74578;BME280;63173;49.086;33.418;2023-02-23T04:29:50;101279.53;;;-6.25;73.52
74578;BME280;63173;49.086;33.418;2023-02-23T04:32:18;101280.97;;;-6.31;74.21
74578;BME280;63173;49.086;33.418;2023-02-23T04:34:45;101288.06;;;-6.31;74.58
74578;BME280;63173;49.086;33.418;2023-02-23T04:37:11;101287.91;;;-6.30;73.90
74578;BME280;63173;49.086;33.418;2023-02-23T04:39:37;101283.22;;;-6.18;74.52
74578;BME280;63173;49.086;33.418;2023-02-23T04:42:02;101298.38;;;-6.28;75.06
74578;BME280;63173;49.086;33.418;2023-02-23T04:44:28;101296.78;;;-6.39;75.71
74578;BME280;63173;49.086;33.418;2023-02-23T04:46:55;101304.53;;;-6.37;75.91
74578;BME280;63173;49.086;33.418;2023-02-23T04:49:21;101299.50;;;-6.31;76.81
74578;BME280;63173;49.086;33.418;2023-02-23T04:51:47;101307.81;;;-6.43;76.73
74578;BME280;63173;49.086;33.418;2023-02-23T04:54:12;101310.06;;;-6.31;77.21
74578;BME280;63173;49.086;33.418;2023-02-23T04:56:38;101303.16;;;-6.24;76.52
74578;BME280;63173;49.086;33.418;2023-02-23T04:59:04;101313.09;;;-6.43;76.12
74578;BME280;63173;49.086;33.418;2023-02-23T05:01:29;101315.63;;;-6.34;76.08
74578;BME280;63173;49.086;33.418;2023-02-23T05:03:56;101324.94;;;-6.30;75.71
74578;BME280;63173;49.086;33.418;2023-02-23T05:06:22;101330.38;;;-6.31;75.78
74578;BME280;63173;49.086;33.418;2023-02-23T05:08:47;101333.50;;;-6.36;75.54
74578;BME280;63173;49.086;33.418;2023-02-23T05:11:13;101332.94;;;-6.39;75.48
74578;BME280;63173;49.086;33.418;2023-02-23T05:13:39;101340.59;;;-6.36;74.84
74578;BME280;63173;49.086;33.418;2023-02-23T05:16:04;101349.34;;;-6.36;76.12
74578;BME280;63173;49.086;33.418;2023-02-23T05:18:30;101347.69;;;-6.37;74.74
74578;BME280;63173;49.086;33.418;2023-02-23T05:21:03;101352.59;;;-6.42;75.03
74578;BME280;63173;49.086;33.418;2023-02-23T05:23:31;101351.34;;;-6.30;75.06
74578;BME280;63173;49.086;33.418;2023-02-23T05:26:02;101360.13;;;-6.29;75.09
74578;BME280;63173;49.086;33.418;2023-02-23T05:28:28;101358.63;;;-6.49;74.98
74578;BME280;63173;49.086;33.418;2023-02-23T05:30:54;101358.78;;;-6.33;75.22
74578;BME280;63173;49.086;33.418;2023-02-23T05:33:19;101360.44;;;-6.32;75.10
74578;BME280;63173;49.086;33.418;2023-02-23T05:35:46;101368.75;;;-6.27;75.30
74578;BME280;63173;49.086;33.418;2023-02-23T05:38:12;101373.78;;;-6.34;75.25
74578;BME280;63173;49.086;33.418;2023-02-23T05:40:37;101373.03;;;-6.26;75.92
74578;BME280;63173;49.086;33.418;2023-02-23T05:43:04;101376.06;;;-6.39;75.39
74578;BME280;63173;49.086;33.418;2023-02-23T05:45:29;101382.63;;;-6.25;75.60
74578;BME280;63173;49.086;33.418;2023-02-23T05:47:55;101381.78;;;-6.08;74.35
74578;BME280;63173;49.086;33.418;2023-02-23T05:50:20;101383.84;;;-6.20;73.87
74578;BME280;63173;49.086;33.418;2023-02-23T05:52:46;101391.69;;;-6.10;74.13
74578;BME280;63173;49.086;33.418;2023-02-23T05:55:11;101396.97;;;-6.10;73.48
74578;BME280;63173;49.086;33.418;2023-02-23T05:57:38;101395.84;;;-6.08;73.22
74578;BME280;63173;49.086;33.418;2023-02-23T06:00:06;101402.88;;;-6.16;72.84
74578;BME280;63173;49.086;33.418;2023-02-23T06:02:32;101396.13;;;-5.93;71.05
74578;BME280;63173;49.086;33.418;2023-02-23T06:04:57;101401.59;;;-6.12;72.64
74578;BME280;63173;49.086;33.418;2023-02-23T06:07:23;101401.94;;;-5.90;71.90
74578;BME280;63173;49.086;33.418;2023-02-23T06:09:48;101404.25;;;-5.87;72.43
74578;BME280;63173;49.086;33.418;2023-02-23T06:12:14;101408.00;;;-5.97;71.82
74578;BME280;63173;49.086;33.418;2023-02-23T06:14:39;101406.72;;;-5.93;71.84
74578;BME280;63173;49.086;33.418;2023-02-23T06:17:05;101419.94;;;-6.11;72.62
74578;BME280;63173;49.086;33.418;2023-02-23T06:19:31;101422.06;;;-5.97;70.93
74578;BME280;63173;49.086;33.418;2023-02-23T06:21:57;101423.28;;;-6.09;70.33
74578;BME280;63173;49.086;33.418;2023-02-23T06:24:23;101413.66;;;-5.92;70.97
74578;BME280;63173;49.086;33.418;2023-02-23T06:26:49;101425.88;;;-5.65;69.94
74578;BME280;63173;49.086;33.418;2023-02-23T06:29:15;101421.59;;;-5.66;70.48
74578;BME280;63173;49.086;33.418;2023-02-23T06:31:41;101425.34;;;-5.51;70.13
74578;BME280;63173;49.086;33.418;2023-02-23T06:34:07;101425.69;;;-5.46;69.43
74578;BME280;63173;49.086;33.418;2023-02-23T06:36:33;101426.22;;;-5.68;70.21
74578;BME280;63173;49.086;33.418;2023-02-23T06:38:58;101431.19;;;-5.65;69.63
74578;BME280;63173;49.086;33.418;2023-02-23T06:41:25;101435.25;;;-5.53;68.07
74578;BME280;63173;49.086;33.418;2023-02-23T06:43:50;101437.56;;;-5.50;69.19
74578;BME280;63173;49.086;33.418;2023-02-23T06:46:17;101439.16;;;-5.40;68.16
74578;BME280;63173;49.086;33.418;2023-02-23T06:48:42;101434.38;;;-5.36;67.07
74578;BME280;63173;49.086;33.418;2023-02-23T06:51:08;101442.31;;;-5.36;66.26
74578;BME280;63173;49.086;33.418;2023-02-23T06:53:34;101441.91;;;-5.49;66.02
74578;BME280;63173;49.086;33.418;2023-02-23T06:56:00;101452.69;;;-5.17;66.81
74578;BME280;63173;49.086;33.418;2023-02-23T06:58:26;101450.72;;;-5.41;67.85
74578;BME280;63173;49.086;33.418;2023-02-23T07:00:54;101454.34;;;-5.42;67.88
74578;BME280;63173;49.086;33.418;2023-02-23T07:03:20;101453.47;;;-5.25;66.30
74578;BME280;63173;49.086;33.418;2023-02-23T07:05:45;101462.84;;;-5.05;66.43
74578;BME280;63173;49.086;33.418;2023-02-23T07:08:11;101460.97;;;-5.12;66.05
74578;BME280;63173;49.086;33.418;2023-02-23T07:10:36;101462.66;;;-5.11;66.44
74578;BME280;63173;49.086;33.418;2023-02-23T07:13:02;101459.09;;;-4.94;65.84
74578;BME280;63173;49.086;33.418;2023-02-23T07:15:27;101456.84;;;-5.15;66.30
74578;BME280;63173;49.086;33.418;2023-02-23T07:17:53;101463.91;;;-4.90;64.70
74578;BME280;63173;49.086;33.418;2023-02-23T07:20:18;101464.06;;;-4.91;64.91
74578;BME280;63173;49.086;33.418;2023-02-23T07:22:44;101468.53;;;-4.92;65.54
74578;BME280;63173;49.086;33.418;2023-02-23T07:25:09;101469.59;;;-4.85;64.98
74578;BME280;63173;49.086;33.418;2023-02-23T07:27:36;101470.91;;;-4.81;64.83
74578;BME280;63173;49.086;33.418;2023-02-23T07:30:01;101474.19;;;-4.53;64.47
74578;BME280;63173;49.086;33.418;2023-02-23T07:32:27;101485.25;;;-4.57;64.94
74578;BME280;63173;49.086;33.418;2023-02-23T07:34:53;101477.72;;;-4.78;64.75
74578;BME280;63173;49.086;33.418;2023-02-23T07:37:18;101483.03;;;-4.78;63.00
74578;BME280;63173;49.086;33.418;2023-02-23T07:39:44;101487.19;;;-4.75;62.37
74578;BME280;63173;49.086;33.418;2023-02-23T07:42:10;101493.03;;;-4.56;62.61
74578;BME280;63173;49.086;33.418;2023-02-23T07:44:35;101490.25;;;-4.54;63.26
74578;BME280;63173;49.086;33.418;2023-02-23T07:47:02;101495.69;;;-4.56;64.04
74578;BME280;63173;49.086;33.418;2023-02-23T07:49:27;101494.56;;;-4.53;64.35
74578;BME280;63173;49.086;33.418;2023-02-23T07:51:54;101503.38;;;-4.45;63.79
74578;BME280;63173;49.086;33.418;2023-02-23T07:54:20;101502.94;;;-4.24;63.09
74578;BME280;63173;49.086;33.418;2023-02-23T07:56:46;101509.94;;;-4.15;63.50
74578;BME280;63173;49.086;33.418;2023-02-23T07:59:12;101506.25;;;-4.30;60.96
74578;BME280;63173;49.086;33.418;2023-02-23T08:01:38;101506.94;;;-4.12;60.89
74578;BME280;63173;49.086;33.418;2023-02-23T08:04:04;101500.13;;;-4.23;61.18
74578;BME280;63173;49.086;33.418;2023-02-23T08:06:31;101504.81;;;-4.01;61.68
74578;BME280;63173;49.086;33.418;2023-02-23T08:09:00;101505.34;;;-3.81;61.25
74578;BME280;63173;49.086;33.418;2023-02-23T08:11:26;101508.16;;;-3.66;61.07
74578;BME280;63173;49.086;33.418;2023-02-23T08:13:53;101506.16;;;-3.89;61.23
74578;BME280;63173;49.086;33.418;2023-02-23T08:16:25;101510.00;;;-3.75;60.65
74578;BME280;63173;49.086;33.418;2023-02-23T08:18:51;101516.44;;;-3.61;60.36
74578;BME280;63173;49.086;33.418;2023-02-23T08:21:16;101517.16;;;-3.67;60.18
74578;BME280;63173;49.086;33.418;2023-02-23T08:23:41;101515.97;;;-3.73;60.62
74578;BME280;63173;49.086;33.418;2023-02-23T08:26:07;101516.47;;;-3.69;60.01
74578;BME280;63173;49.086;33.418;2023-02-23T08:28:32;101508.31;;;-3.52;59.43
74578;BME280;63173;49.086;33.418;2023-02-23T08:30:58;101514.63;;;-3.61;58.52
74578;BME280;63173;49.086;33.418;2023-02-23T08:33:23;101516.97;;;-3.50;57.59
74578;BME280;63173;49.086;33.418;2023-02-23T08:35:49;101515.97;;;-3.33;58.46
74578;BME280;63173;49.086;33.418;2023-02-23T08:38:14;101507.63;;;-3.06;58.02
74578;BME280;63173;49.086;33.418;2023-02-23T08:40:40;101514.13;;;-3.40;57.57
74578;BME280;63173;49.086;33.418;2023-02-23T08:43:06;101511.97;;;-3.37;56.00
74578;BME280;63173;49.086;33.418;2023-02-23T08:45:31;101516.63;;;-3.07;56.76
74578;BME280;63173;49.086;33.418;2023-02-23T08:47:56;101521.41;;;-2.94;56.96
74578;BME280;63173;49.086;33.418;2023-02-23T08:50:22;101510.41;;;-2.91;56.02
74578;BME280;63173;49.086;33.418;2023-02-23T08:52:48;101522.09;;;-3.16;56.64
74578;BME280;63173;49.086;33.418;2023-02-23T08:55:13;101525.22;;;-2.97;56.20
74578;BME280;63173;49.086;33.418;2023-02-23T08:57:40;101524.53;;;-2.82;55.13
74578;BME280;63173;49.086;33.418;2023-02-23T09:00:06;101520.47;;;-2.62;53.42
74578;BME280;63173;49.086;33.418;2023-02-23T09:02:39;101527.31;;;-2.76;54.62
74578;BME280;63173;49.086;33.418;2023-02-23T09:05:06;101526.88;;;-2.41;53.31
74578;BME280;63173;49.086;33.418;2023-02-23T09:07:32;101525.25;;;-2.50;53.61
74578;BME280;63173;49.086;33.418;2023-02-23T09:09:57;101523.03;;;-2.38;52.58
74578;BME280;63173;49.086;33.418;2023-02-23T09:12:23;101527.31;;;-1.76;51.54
74578;BME280;63173;49.086;33.418;2023-02-23T09:14:48;101535.47;;;-1.69;51.67
74578;BME280;63173;49.086;33.418;2023-02-23T09:17:16;101525.84;;;-2.32;52.83
74578;BME280;63173;49.086;33.418;2023-02-23T09:19:42;101525.84;;;-2.32;52.88
74578;BME280;63173;49.086;33.418;2023-02-23T09:22:07;101526.47;;;-2.22;53.85
74578;BME280;63173;49.086;33.418;2023-02-23T09:24:33;101531.63;;;-1.44;51.52
74578;BME280;63173;49.086;33.418;2023-02-23T09:26:59;101535.31;;;-1.76;51.86
74578;BME280;63173;49.086;33.418;2023-02-23T09:29:24;101531.34;;;-2.03;53.01
74578;BME280;63173;49.086;33.418;2023-02-23T09:31:50;101532.06;;;-1.41;51.15
74578;BME280;63173;49.086;33.418;2023-02-23T09:34:17;101539.19;;;-1.78;52.51
74578;BME280;63173;49.086;33.418;2023-02-23T09:36:43;101539.28;;;-1.72;50.88
74578;BME280;63173;49.086;33.418;2023-02-23T09:39:08;101530.56;;;-2.11;52.00
74578;BME280;63173;49.086;33.418;2023-02-23T09:42:02;101538.16;;;-1.55;51.67
74578;BME280;63173;49.086;33.418;2023-02-23T09:47:30;101535.28;;;-1.68;52.21
74578;BME280;63173;49.086;33.418;2023-02-23T09:50:03;101530.34;;;-1.79;52.99
74578;BME280;63173;49.086;33.418;2023-02-23T09:52:41;101542.03;;;-1.80;52.60
74578;BME280;63173;49.086;33.418;2023-02-23T09:55:11;101533.94;;;-1.27;51.38
74578;BME280;63173;49.086;33.418;2023-02-23T09:57:40;101530.59;;;-1.66;52.00
74578;BME280;63173;49.086;33.418;2023-02-23T10:00:15;101529.84;;;-1.15;50.25
74578;BME280;63173;49.086;33.418;2023-02-23T10:05:31;101537.09;;;-1.23;50.43
74578;BME280;63173;49.086;33.418;2023-02-23T10:08:03;101541.34;;;-1.14;50.23
74578;BME280;63173;49.086;33.418;2023-02-23T10:10:39;101535.78;;;-0.75;50.55
74578;BME280;63173;49.086;33.418;2023-02-23T10:13:50;101536.09;;;-1.08;50.02
74578;BME280;63173;49.086;33.418;2023-02-23T10:16:13;101527.13;;;-0.92;48.10
74578;BME280;63173;49.086;33.418;2023-02-23T10:21:42;101529.41;;;-0.16;49.39
74578;BME280;63173;49.086;33.418;2023-02-23T10:24:19;101525.09;;;-1.05;50.76
74578;BME280;63173;49.086;33.418;2023-02-23T10:26:51;101531.34;;;-0.83;50.40
74578;BME280;63173;49.086;33.418;2023-02-23T10:29:26;101522.34;;;-0.53;49.43
74578;BME280;63173;49.086;33.418;2023-02-23T10:32:02;101523.53;;;0.10;48.92
74578;BME280;63173;49.086;33.418;2023-02-23T10:34:30;101520.81;;;0.24;46.79
74578;BME280;63173;49.086;33.418;2023-02-23T10:37:01;101520.81;;;0.24;47.38
74578;BME280;63173;49.086;33.418;2023-02-23T10:39:30;101517.66;;;0.56;45.78
74578;BME280;63173;49.086;33.418;2023-02-23T10:41:59;101514.84;;;0.43;46.53
74578;BME280;63173;49.086;33.418;2023-02-23T10:44:27;101516.69;;;0.43;47.08
74578;BME280;63173;49.086;33.418;2023-02-23T10:47:02;101529.63;;;0.60;46.63
74578;BME280;63173;49.086;33.418;2023-02-23T10:49:46;101521.69;;;0.10;47.46
74578;BME280;63173;49.086;33.418;2023-02-23T10:52:16;101508.78;;;0.35;46.45
74578;BME280;63173;49.086;33.418;2023-02-23T10:54:45;101507.56;;;1.41;44.58
74578;BME280;63173;49.086;33.418;2023-02-23T11:00:17;101501.16;;;1.36;43.84
74578;BME280;63173;49.086;33.418;2023-02-23T11:02:51;101516.88;;;0.62;45.72
74578;BME280;63173;49.086;33.418;2023-02-23T11:08:10;101517.44;;;0.79;43.42
74578;BME280;63173;49.086;33.418;2023-02-23T11:10:38;101512.34;;;0.42;45.16
74578;BME280;63173;49.086;33.418;2023-02-23T11:13:04;101503.69;;;1.50;44.82
74578;BME280;63173;49.086;33.418;2023-02-23T11:15:32;101512.78;;;1.22;44.09
74578;BME280;63173;49.086;33.418;2023-02-23T11:18:00;101510.03;;;1.09;43.75
74578;BME280;63173;49.086;33.418;2023-02-23T11:20:39;101508.69;;;1.26;43.98
74578;BME280;63173;49.086;33.418;2023-02-23T11:23:09;101498.81;;;0.92;44.63
74578;BME280;63173;49.086;33.418;2023-02-23T11:25:41;101508.78;;;1.86;42.61
74578;BME280;63173;49.086;33.418;2023-02-23T11:28:18;101506.47;;;1.29;44.58
74578;BME280;63173;49.086;33.418;2023-02-23T11:30:46;101499.06;;;1.78;42.28
74578;BME280;63173;49.086;33.418;2023-02-23T11:33:24;101500.03;;;2.12;41.88
74578;BME280;63173;49.086;33.418;2023-02-23T11:35:58;101498.88;;;2.53;41.94
74578;BME280;63173;49.086;33.418;2023-02-23T11:38:26;101497.13;;;2.13;42.58
74578;BME280;63173;49.086;33.418;2023-02-23T11:41:01;101502.00;;;1.43;44.42
74578;BME280;63173;49.086;33.418;2023-02-23T11:43:27;101502.34;;;2.34;40.28
74578;BME280;63173;49.086;33.418;2023-02-23T11:45:54;101496.09;;;2.14;40.52
74578;BME280;63173;49.086;33.418;2023-02-23T11:50:50;101490.78;;;1.67;43.11
74578;BME280;63173;49.086;33.418;2023-02-23T11:55:54;101510.47;;;1.46;41.23
74578;BME280;63173;49.086;33.418;2023-02-23T12:01:04;101510.84;;;2.57;41.14
74578;BME280;63173;49.086;33.418;2023-02-23T12:03:37;101514.72;;;2.35;41.37
74578;BME280;63173;49.086;33.418;2023-02-23T12:06:08;101514.88;;;2.27;41.57
74578;BME280;63173;49.086;33.418;2023-02-23T12:08:39;101517.81;;;2.39;42.52
74578;BME280;63173;49.086;33.418;2023-02-23T12:11:12;101519.88;;;1.70;44.02
74578;BME280;63173;49.086;33.418;2023-02-23T12:13:48;101523.41;;;2.63;42.39
74578;BME280;63173;49.086;33.418;2023-02-23T12:16:22;101521.97;;;2.48;42.61
74578;BME280;63173;49.086;33.418;2023-02-23T12:21:42;101520.34;;;2.66;43.01
74578;BME280;63173;49.086;33.418;2023-02-23T12:24:29;101510.19;;;3.01;41.23
74578;BME280;63173;49.086;33.418;2023-02-23T12:27:09;101518.66;;;2.33;43.15
74578;BME280;63173;49.086;33.418;2023-02-23T12:30:18;101513.09;;;2.54;43.79
74578;BME280;63173;49.086;33.418;2023-02-23T12:33:09;101517.41;;;2.42;42.63
74578;BME280;63173;49.086;33.418;2023-02-23T12:36:11;101519.31;;;1.87;44.13
74578;BME280;63173;49.086;33.418;2023-02-23T12:44:00;101519.47;;;2.59;40.63
74578;BME280;63173;49.086;33.418;2023-02-23T12:46:33;101518.28;;;2.95;40.88
74578;BME280;63173;49.086;33.418;2023-02-23T12:49:05;101523.22;;;2.98;41.95
74578;BME280;63173;49.086;33.418;2023-02-23T12:51:39;101519.06;;;2.82;43.89
74578;BME280;63173;49.086;33.418;2023-02-23T12:54:08;101507.88;;;4.01;43.44
74578;BME280;63173;49.086;33.418;2023-02-23T12:56:52;101513.31;;;4.57;41.45
74578;BME280;63173;49.086;33.418;2023-02-23T12:59:44;101520.41;;;4.07;41.75
74578;BME280;63173;49.086;33.418;2023-02-23T13:07:22;101515.78;;;4.58;40.82
74578;BME280;63173;49.086;33.418;2023-02-23T13:10:19;101530.84;;;3.97;39.87
74578;BME280;63173;49.086;33.418;2023-02-23T13:13:15;101520.53;;;3.81;41.44
74578;BME280;63173;49.086;33.418;2023-02-23T13:18:36;101522.31;;;4.00;42.41
74578;BME280;63173;49.086;33.418;2023-02-23T13:21:39;101528.63;;;4.56;42.04
74578;BME280;63173;49.086;33.418;2023-02-23T13:24:09;101528.03;;;3.66;41.41
74578;BME280;63173;49.086;33.418;2023-02-23T13:27:02;101515.47;;;4.73;40.02
74578;BME280;63173;49.086;33.418;2023-02-23T13:32:04;101520.56;;;4.19;41.62
74578;BME280;63173;49.086;33.418;2023-02-23T13:34:34;101518.06;;;3.86;42.16
74578;BME280;63173;49.086;33.418;2023-02-23T13:37:04;101525.91;;;3.81;42.21
74578;BME280;63173;49.086;33.418;2023-02-23T13:42:31;101521.47;;;4.44;41.52
74578;BME280;63173;49.086;33.418;2023-02-23T13:48:15;101515.63;;;5.82;38.70
74578;BME280;63173;49.086;33.418;2023-02-23T13:51:05;101518.34;;;5.21;39.87
74578;BME280;63173;49.086;33.418;2023-02-23T13:53:36;101518.25;;;5.70;39.00
74578;BME280;63173;49.086;33.418;2023-02-23T13:56:06;101516.88;;;5.25;39.43
74578;BME280;63173;49.086;33.418;2023-02-23T13:58:32;101516.97;;;5.72;37.68
74578;BME280;63173;49.086;33.418;2023-02-23T14:01:14;101531.09;;;5.07;38.40
74578;BME280;63173;49.086;33.418;2023-02-23T14:03:51;101526.28;;;4.91;39.08
74578;BME280;63173;49.086;33.418;2023-02-23T14:06:18;101512.22;;;5.32;38.58
74578;BME280;63173;49.086;33.418;2023-02-23T14:08:52;101516.44;;;5.28;38.05
74578;BME280;63173;49.086;33.418;2023-02-23T14:11:40;101507.75;;;5.98;36.44
74578;BME280;63173;49.086;33.418;2023-02-23T14:14:11;101513.16;;;5.62;37.67
74578;BME280;63173;49.086;33.418;2023-02-23T14:16:37;101520.69;;;3.99;39.92
74578;BME280;63173;49.086;33.418;2023-02-23T14:19:09;101524.06;;;4.88;39.78
74578;BME280;63173;49.086;33.418;2023-02-23T14:22:01;101523.84;;;3.83;40.32
74578;BME280;63173;49.086;33.418;2023-02-23T14:24:28;101523.91;;;3.70;42.38
74578;BME280;63173;49.086;33.418;2023-02-23T14:29:38;101521.50;;;4.37;41.45
74578;BME280;63173;49.086;33.418;2023-02-23T14:34:52;101522.97;;;3.19;43.18